sensor_id;sensor_type;location;lat;lon;timestamp;temperature;humidity
4677;DHT22;2352;48.180;11.478;2023-08-07T00:00:47;14.50;99.90
4677;DHT22;2352;48.180;11.478;2023-08-07T00:03:50;14.50;99.90
4677;DHT22;2352;48.180;11.478;2023-08-07T00:06:54;14.50;99.90
4677;DHT22;2352;48.180;11.478;2023-08-07T00:09:57;14.40;99.90
4677;DHT22;2352;48.180;11.478;2023-08-07T00:13:00;14.30;99.90
4677;DHT22;2352;48.180;11.478;2023-08-07T00:16:03;14.30;99.90
4677;DHT22;2352;48.180;11.478;2023-08-07T00:19:06;14.30;99.90
4677;DHT22;2352;48.180;11.478;2023-08-07T00:22:10;14.30;99.90
4677;DHT22;2352;48.180;11.478;2023-08-07T00:25:13;14.30;99.90
4677;DHT22;2352;48.180;11.478;2023-08-07T00:28:16;14.40;99.90
4677;DHT22;2352;48.180;11.478;2023-08-07T00:31:19;14.20;99.90
4677;DHT22;2352;48.180;11.478;2023-08-07T00:34:21;14.30;99.90
4677;DHT22;2352;48.180;11.478;2023-08-07T00:37:26;14.30;99.90
4677;DHT22;2352;48.180;11.478;2023-08-07T00:40:36;14.30;99.90
4677;DHT22;2352;48.180;11.478;2023-08-07T00:43:39;14.30;99.90
4677;DHT22;2352;48.180;11.478;2023-08-07T00:46:42;14.30;99.90
4677;DHT22;2352;48.180;11.478;2023-08-07T00:49:46;14.20;99.90
4677;DHT22;2352;48.180;11.478;2023-08-07T00:52:51;14.10;99.90
4677;DHT22;2352;48.180;11.478;2023-08-07T00:55:54;14.00;99.90
4677;DHT22;2352;48.180;11.478;2023-08-07T00:58:57;14.00;99.90
4677;DHT22;2352;48.180;11.478;2023-08-07T01:02:00;14.00;99.90
4677;DHT22;2352;48.180;11.478;2023-08-07T01:05:04;13.90;99.90
4677;DHT22;2352;48.180;11.478;2023-08-07T01:08:09;13.80;99.90
4677;DHT22;2352;48.180;11.478;2023-08-07T01:11:21;13.80;99.90
4677;DHT22;2352;48.180;11.478;2023-08-07T01:14:30;13.80;99.90
4677;DHT22;2352;48.180;11.478;2023-08-07T01:17:35;13.80;99.90
4677;DHT22;2352;48.180;11.478;2023-08-07T01:20:38;13.70;99.90
4677;DHT22;2352;48.180;11.478;2023-08-07T01:23:42;13.80;99.90
4677;DHT22;2352;48.180;11.478;2023-08-07T01:26:45;13.60;99.90
4677;DHT22;2352;48.180;11.478;2023-08-07T01:29:54;13.60;99.90
4677;DHT22;2352;48.180;11.478;2023-08-07T01:33:05;13.60;99.90
4677;DHT22;2352;48.180;11.478;2023-08-07T01:36:10;13.70;99.90
4677;DHT22;2352;48.180;11.478;2023-08-07T01:39:16;13.60;99.90
4677;DHT22;2352;48.180;11.478;2023-08-07T01:42:20;13.50;99.90
4677;DHT22;2352;48.180;11.478;2023-08-07T01:45:24;13.50;99.90
4677;DHT22;2352;48.180;11.478;2023-08-07T01:48:27;13.60;99.90
4677;DHT22;2352;48.180;11.478;2023-08-07T01:51:30;13.50;99.90
4677;DHT22;2352;48.180;11.478;2023-08-07T01:54:34;13.50;99.90
4677;DHT22;2352;48.180;11.478;2023-08-07T01:57:37;13.50;99.90
4677;DHT22;2352;48.180;11.478;2023-08-07T02:00:40;13.50;99.90
4677;DHT22;2352;48.180;11.478;2023-08-07T02:03:43;13.40;99.90
4677;DHT22;2352;48.180;11.478;2023-08-07T02:06:46;13.40;99.90
4677;DHT22;2352;48.180;11.478;2023-08-07T02:09:50;13.40;99.90
4677;DHT22;2352;48.180;11.478;2023-08-07T02:12:53;13.40;99.90
4677;DHT22;2352;48.180;11.478;2023-08-07T02:15:56;13.40;99.90
4677;DHT22;2352;48.180;11.478;2023-08-07T02:18:59;13.50;99.90
4677;DHT22;2352;48.180;11.478;2023-08-07T02:22:02;13.40;99.90
4677;DHT22;2352;48.180;11.478;2023-08-07T02:25:08;13.40;99.90
4677;DHT22;2352;48.180;11.478;2023-08-07T02:28:11;13.40;99.90
4677;DHT22;2352;48.180;11.478;2023-08-07T02:31:13;13.40;99.90
4677;DHT22;2352;48.180;11.478;2023-08-07T02:34:16;13.40;99.90
4677;DHT22;2352;48.180;11.478;2023-08-07T02:37:19;13.50;99.90
4677;DHT22;2352;48.180;11.478;2023-08-07T02:40:24;13.50;99.90
4677;DHT22;2352;48.180;11.478;2023-08-07T02:43:26;13.40;99.90
4677;DHT22;2352;48.180;11.478;2023-08-07T02:46:30;13.30;99.90
4677;DHT22;2352;48.180;11.478;2023-08-07T02:49:33;13.30;99.90
4677;DHT22;2352;48.180;11.478;2023-08-07T02:52:36;13.40;99.90
4677;DHT22;2352;48.180;11.478;2023-08-07T02:55:42;13.40;99.90
4677;DHT22;2352;48.180;11.478;2023-08-07T02:58:45;13.40;99.90
4677;DHT22;2352;48.180;11.478;2023-08-07T03:01:50;13.40;99.90
4677;DHT22;2352;48.180;11.478;2023-08-07T03:04:53;13.40;99.90
4677;DHT22;2352;48.180;11.478;2023-08-07T03:07:56;13.40;99.90
4677;DHT22;2352;48.180;11.478;2023-08-07T03:11:00;13.40;99.90
4677;DHT22;2352;48.180;11.478;2023-08-07T03:14:03;13.40;99.90
4677;DHT22;2352;48.180;11.478;2023-08-07T03:17:06;13.40;99.90
4677;DHT22;2352;48.180;11.478;2023-08-07T03:20:09;13.40;99.90
4677;DHT22;2352;48.180;11.478;2023-08-07T03:23:12;13.30;99.90
4677;DHT22;2352;48.180;11.478;2023-08-07T03:26:17;13.40;99.90
4677;DHT22;2352;48.180;11.478;2023-08-07T03:29:20;13.40;99.90
4677;DHT22;2352;48.180;11.478;2023-08-07T03:32:23;13.40;99.90
4677;DHT22;2352;48.180;11.478;2023-08-07T03:35:26;13.50;99.90
4677;DHT22;2352;48.180;11.478;2023-08-07T03:38:29;13.40;99.90
4677;DHT22;2352;48.180;11.478;2023-08-07T03:41:33;13.30;99.90
4677;DHT22;2352;48.180;11.478;2023-08-07T03:44:36;13.30;99.90
4677;DHT22;2352;48.180;11.478;2023-08-07T03:47:39;13.40;99.90
4677;DHT22;2352;48.180;11.478;2023-08-07T03:50:42;13.40;99.90
4677;DHT22;2352;48.180;11.478;2023-08-07T03:53:45;13.30;99.90
4677;DHT22;2352;48.180;11.478;2023-08-07T03:56:49;13.30;99.90
4677;DHT22;2352;48.180;11.478;2023-08-07T03:59:52;13.40;99.90
4677;DHT22;2352;48.180;11.478;2023-08-07T04:02:56;13.30;99.90
4677;DHT22;2352;48.180;11.478;2023-08-07T04:05:59;13.30;99.90
4677;DHT22;2352;48.180;11.478;2023-08-07T04:09:03;13.40;99.90
4677;DHT22;2352;48.180;11.478;2023-08-07T04:12:08;13.30;99.90
4677;DHT22;2352;48.180;11.478;2023-08-07T04:15:11;13.30;99.90
4677;DHT22;2352;48.180;11.478;2023-08-07T04:18:14;13.30;99.90
4677;DHT22;2352;48.180;11.478;2023-08-07T04:21:17;13.30;99.90
4677;DHT22;2352;48.180;11.478;2023-08-07T04:24:20;13.30;99.90
4677;DHT22;2352;48.180;11.478;2023-08-07T04:27:24;13.40;99.90
4677;DHT22;2352;48.180;11.478;2023-08-07T04:30:27;13.50;99.90
4677;DHT22;2352;48.180;11.478;2023-08-07T04:33:30;13.50;99.90
4677;DHT22;2352;48.180;11.478;2023-08-07T04:36:32;13.50;99.90
4677;DHT22;2352;48.180;11.478;2023-08-07T04:39:35;13.50;99.90
4677;DHT22;2352;48.180;11.478;2023-08-07T04:42:40;13.40;99.90
4677;DHT22;2352;48.180;11.478;2023-08-07T04:45:43;13.40;99.90
4677;DHT22;2352;48.180;11.478;2023-08-07T04:48:47;13.40;99.90
4677;DHT22;2352;48.180;11.478;2023-08-07T04:51:50;13.40;99.90
4677;DHT22;2352;48.180;11.478;2023-08-07T04:54:53;13.50;99.90
4677;DHT22;2352;48.180;11.478;2023-08-07T04:57:57;13.50;99.90
4677;DHT22;2352;48.180;11.478;2023-08-07T05:01:00;13.50;99.90
4677;DHT22;2352;48.180;11.478;2023-08-07T05:04:03;13.60;99.90
4677;DHT22;2352;48.180;11.478;2023-08-07T05:07:06;13.60;99.90
4677;DHT22;2352;48.180;11.478;2023-08-07T05:10:09;13.50;99.90
4677;DHT22;2352;48.180;11.478;2023-08-07T05:13:14;13.60;99.90
4677;DHT22;2352;48.180;11.478;2023-08-07T05:16:16;13.60;99.90
4677;DHT22;2352;48.180;11.478;2023-08-07T05:19:20;13.60;99.90
4677;DHT22;2352;48.180;11.478;2023-08-07T05:22:23;13.60;99.90
4677;DHT22;2352;48.180;11.478;2023-08-07T05:25:26;13.50;99.90
4677;DHT22;2352;48.180;11.478;2023-08-07T05:28:31;13.50;99.90
4677;DHT22;2352;48.180;11.478;2023-08-07T05:31:34;13.50;99.90
4677;DHT22;2352;48.180;11.478;2023-08-07T05:34:37;13.60;99.90
4677;DHT22;2352;48.180;11.478;2023-08-07T05:37:41;13.50;99.90
4677;DHT22;2352;48.180;11.478;2023-08-07T05:40:44;13.50;99.90
4677;DHT22;2352;48.180;11.478;2023-08-07T05:43:48;13.60;99.90
4677;DHT22;2352;48.180;11.478;2023-08-07T05:46:51;13.50;99.90
4677;DHT22;2352;48.180;11.478;2023-08-07T05:49:54;13.60;99.90
4677;DHT22;2352;48.180;11.478;2023-08-07T05:52:57;13.50;99.90
4677;DHT22;2352;48.180;11.478;2023-08-07T05:56:00;13.50;99.90
4677;DHT22;2352;48.180;11.478;2023-08-07T05:59:04;13.50;99.90
4677;DHT22;2352;48.180;11.478;2023-08-07T06:02:07;13.50;99.90
4677;DHT22;2352;48.180;11.478;2023-08-07T06:05:12;13.50;99.90
4677;DHT22;2352;48.180;11.478;2023-08-07T06:08:16;13.60;99.90
4677;DHT22;2352;48.180;11.478;2023-08-07T06:11:19;13.60;99.90
4677;DHT22;2352;48.180;11.478;2023-08-07T06:14:23;13.50;99.90
4677;DHT22;2352;48.180;11.478;2023-08-07T06:17:27;13.50;99.90
4677;DHT22;2352;48.180;11.478;2023-08-07T06:20:30;13.60;99.90
4677;DHT22;2352;48.180;11.478;2023-08-07T06:23:33;13.70;99.90
4677;DHT22;2352;48.180;11.478;2023-08-07T06:26:36;13.70;99.90
4677;DHT22;2352;48.180;11.478;2023-08-07T06:29:40;13.70;99.90
4677;DHT22;2352;48.180;11.478;2023-08-07T06:32:46;13.80;99.90
4677;DHT22;2352;48.180;11.478;2023-08-07T06:35:52;13.70;99.90
4677;DHT22;2352;48.180;11.478;2023-08-07T06:38:55;13.70;99.90
4677;DHT22;2352;48.180;11.478;2023-08-07T06:42:00;13.80;99.90
4677;DHT22;2352;48.180;11.478;2023-08-07T06:45:06;13.80;99.90
4677;DHT22;2352;48.180;11.478;2023-08-07T06:48:09;13.80;99.90
4677;DHT22;2352;48.180;11.478;2023-08-07T06:51:12;13.80;99.90
4677;DHT22;2352;48.180;11.478;2023-08-07T06:54:15;13.80;99.90
4677;DHT22;2352;48.180;11.478;2023-08-07T06:57:18;13.80;99.90
4677;DHT22;2352;48.180;11.478;2023-08-07T07:00:22;13.80;99.90
4677;DHT22;2352;48.180;11.478;2023-08-07T07:03:25;13.90;99.90
4677;DHT22;2352;48.180;11.478;2023-08-07T07:06:28;14.00;99.80
4677;DHT22;2352;48.180;11.478;2023-08-07T07:09:31;14.00;99.80
4677;DHT22;2352;48.180;11.478;2023-08-07T07:12:34;14.10;99.80
4677;DHT22;2352;48.180;11.478;2023-08-07T07:15:38;14.10;98.70
4677;DHT22;2352;48.180;11.478;2023-08-07T07:18:41;14.30;98.90
4677;DHT22;2352;48.180;11.478;2023-08-07T07:21:44;14.30;99.30
4677;DHT22;2352;48.180;11.478;2023-08-07T07:24:47;14.40;99.00
4677;DHT22;2352;48.180;11.478;2023-08-07T07:27:49;14.40;98.90
4677;DHT22;2352;48.180;11.478;2023-08-07T07:30:54;14.40;98.50
4677;DHT22;2352;48.180;11.478;2023-08-07T07:33:57;14.50;97.80
4677;DHT22;2352;48.180;11.478;2023-08-07T07:37:00;14.50;97.70
4677;DHT22;2352;48.180;11.478;2023-08-07T07:40:03;14.60;97.50
4677;DHT22;2352;48.180;11.478;2023-08-07T07:43:06;14.50;97.00
4677;DHT22;2352;48.180;11.478;2023-08-07T07:46:11;14.60;98.20
4677;DHT22;2352;48.180;11.478;2023-08-07T07:49:14;14.60;97.90
4677;DHT22;2352;48.180;11.478;2023-08-07T07:52:17;14.70;97.60
4677;DHT22;2352;48.180;11.478;2023-08-07T07:55:20;14.70;97.40
4677;DHT22;2352;48.180;11.478;2023-08-07T07:58:23;14.70;97.30
4677;DHT22;2352;48.180;11.478;2023-08-07T08:01:27;14.80;97.10
4677;DHT22;2352;48.180;11.478;2023-08-07T08:04:30;14.80;96.90
4677;DHT22;2352;48.180;11.478;2023-08-07T08:07:33;14.80;96.80
4677;DHT22;2352;48.180;11.478;2023-08-07T08:10:37;14.80;97.10
4677;DHT22;2352;48.180;11.478;2023-08-07T08:13:40;14.90;97.80
4677;DHT22;2352;48.180;11.478;2023-08-07T08:16:44;14.90;97.10
4677;DHT22;2352;48.180;11.478;2023-08-07T08:19:47;15.00;97.10
4677;DHT22;2352;48.180;11.478;2023-08-07T08:22:52;15.00;96.70
4677;DHT22;2352;48.180;11.478;2023-08-07T08:25:54;15.00;97.20
4677;DHT22;2352;48.180;11.478;2023-08-07T08:28:57;15.00;97.10
4677;DHT22;2352;48.180;11.478;2023-08-07T08:32:02;15.10;97.00
4677;DHT22;2352;48.180;11.478;2023-08-07T08:35:05;15.10;97.20
4677;DHT22;2352;48.180;11.478;2023-08-07T08:38:09;15.20;97.40
4677;DHT22;2352;48.180;11.478;2023-08-07T08:41:12;15.20;97.40
4677;DHT22;2352;48.180;11.478;2023-08-07T08:44:17;15.30;97.60
4677;DHT22;2352;48.180;11.478;2023-08-07T08:47:22;15.30;96.80
4677;DHT22;2352;48.180;11.478;2023-08-07T08:50:26;15.30;97.30
4677;DHT22;2352;48.180;11.478;2023-08-07T08:53:29;15.20;96.90
4677;DHT22;2352;48.180;11.478;2023-08-07T08:56:33;15.20;96.10
4677;DHT22;2352;48.180;11.478;2023-08-07T08:59:36;15.20;96.90
4677;DHT22;2352;48.180;11.478;2023-08-07T09:02:40;15.30;96.50
4677;DHT22;2352;48.180;11.478;2023-08-07T09:05:43;15.30;96.50
4677;DHT22;2352;48.180;11.478;2023-08-07T09:08:47;15.30;95.60
4677;DHT22;2352;48.180;11.478;2023-08-07T09:11:52;15.30;96.10
4677;DHT22;2352;48.180;11.478;2023-08-07T09:14:57;15.30;96.90
4677;DHT22;2352;48.180;11.478;2023-08-07T09:18:06;15.30;97.10
4677;DHT22;2352;48.180;11.478;2023-08-07T09:21:11;15.30;96.30
4677;DHT22;2352;48.180;11.478;2023-08-07T09:24:18;15.30;96.10
4677;DHT22;2352;48.180;11.478;2023-08-07T09:27:24;15.30;96.10
4677;DHT22;2352;48.180;11.478;2023-08-07T09:30:28;15.30;96.00
4677;DHT22;2352;48.180;11.478;2023-08-07T09:33:33;15.40;96.10
4677;DHT22;2352;48.180;11.478;2023-08-07T09:36:36;15.50;96.40
4677;DHT22;2352;48.180;11.478;2023-08-07T09:39:40;15.60;96.60
4677;DHT22;2352;48.180;11.478;2023-08-07T09:42:43;15.70;95.70
4677;DHT22;2352;48.180;11.478;2023-08-07T09:45:46;15.80;96.30
4677;DHT22;2352;48.180;11.478;2023-08-07T09:48:50;15.80;96.10
4677;DHT22;2352;48.180;11.478;2023-08-07T09:51:53;15.90;95.90
4677;DHT22;2352;48.180;11.478;2023-08-07T09:54:56;15.90;95.50
4677;DHT22;2352;48.180;11.478;2023-08-07T09:58:01;16.00;94.90
4677;DHT22;2352;48.180;11.478;2023-08-07T10:01:04;16.00;95.00
4677;DHT22;2352;48.180;11.478;2023-08-07T10:04:09;16.10;95.80
4677;DHT22;2352;48.180;11.478;2023-08-07T10:07:16;16.10;95.30
4677;DHT22;2352;48.180;11.478;2023-08-07T10:10:19;16.20;94.80
4677;DHT22;2352;48.180;11.478;2023-08-07T10:13:22;16.20;94.50
4677;DHT22;2352;48.180;11.478;2023-08-07T10:16:40;16.40;94.90
4677;DHT22;2352;48.180;11.478;2023-08-07T10:19:44;16.50;94.30
4677;DHT22;2352;48.180;11.478;2023-08-07T10:22:48;16.80;95.80
4677;DHT22;2352;48.180;11.478;2023-08-07T10:25:51;17.00;94.40
4677;DHT22;2352;48.180;11.478;2023-08-07T10:28:56;17.20;93.50
4677;DHT22;2352;48.180;11.478;2023-08-07T10:32:01;17.30;92.30
4677;DHT22;2352;48.180;11.478;2023-08-07T10:35:07;17.30;92.90
4677;DHT22;2352;48.180;11.478;2023-08-07T10:38:10;17.40;91.90
4677;DHT22;2352;48.180;11.478;2023-08-07T10:41:13;17.40;91.60
4677;DHT22;2352;48.180;11.478;2023-08-07T10:44:17;17.40;91.10
4677;DHT22;2352;48.180;11.478;2023-08-07T10:47:33;17.50;93.00
4677;DHT22;2352;48.180;11.478;2023-08-07T10:50:50;17.60;91.70
4677;DHT22;2352;48.180;11.478;2023-08-07T10:53:53;17.70;92.40
4677;DHT22;2352;48.180;11.478;2023-08-07T10:56:59;17.70;92.20
4677;DHT22;2352;48.180;11.478;2023-08-07T11:00:03;17.60;91.00
4677;DHT22;2352;48.180;11.478;2023-08-07T11:03:09;17.60;92.40
4677;DHT22;2352;48.180;11.478;2023-08-07T11:06:14;17.60;92.20
4677;DHT22;2352;48.180;11.478;2023-08-07T11:09:16;17.60;91.00
4677;DHT22;2352;48.180;11.478;2023-08-07T11:12:20;17.60;90.20
4677;DHT22;2352;48.180;11.478;2023-08-07T11:15:23;17.70;89.30
4677;DHT22;2352;48.180;11.478;2023-08-07T11:18:26;17.80;90.40
4677;DHT22;2352;48.180;11.478;2023-08-07T11:21:30;17.90;90.50
4677;DHT22;2352;48.180;11.478;2023-08-07T11:24:35;17.90;91.00
4677;DHT22;2352;48.180;11.478;2023-08-07T11:27:38;17.80;90.60
4677;DHT22;2352;48.180;11.478;2023-08-07T11:30:41;17.80;91.20
4677;DHT22;2352;48.180;11.478;2023-08-07T11:33:47;17.70;91.50
4677;DHT22;2352;48.180;11.478;2023-08-07T11:36:53;17.70;91.50
4677;DHT22;2352;48.180;11.478;2023-08-07T11:40:01;17.50;90.40
4677;DHT22;2352;48.180;11.478;2023-08-07T11:43:04;17.50;90.50
4677;DHT22;2352;48.180;11.478;2023-08-07T11:46:10;17.60;91.00
4677;DHT22;2352;48.180;11.478;2023-08-07T11:49:13;17.70;90.50
4677;DHT22;2352;48.180;11.478;2023-08-07T11:52:18;17.70;90.00
4677;DHT22;2352;48.180;11.478;2023-08-07T11:55:23;17.60;89.70
4677;DHT22;2352;48.180;11.478;2023-08-07T11:58:27;17.80;89.90
4677;DHT22;2352;48.180;11.478;2023-08-07T12:01:30;18.10;90.50
4677;DHT22;2352;48.180;11.478;2023-08-07T12:04:40;18.30;89.10
4677;DHT22;2352;48.180;11.478;2023-08-07T12:07:44;18.70;89.60
4677;DHT22;2352;48.180;11.478;2023-08-07T12:10:53;19.00;88.30
4677;DHT22;2352;48.180;11.478;2023-08-07T12:13:59;19.10;85.20
4677;DHT22;2352;48.180;11.478;2023-08-07T12:17:04;19.00;81.20
4677;DHT22;2352;48.180;11.478;2023-08-07T12:20:08;19.00;83.60
4677;DHT22;2352;48.180;11.478;2023-08-07T12:23:15;19.00;87.40
4677;DHT22;2352;48.180;11.478;2023-08-07T12:26:19;19.00;82.60
4677;DHT22;2352;48.180;11.478;2023-08-07T12:29:22;19.00;82.70
4677;DHT22;2352;48.180;11.478;2023-08-07T12:32:26;18.90;81.90
4677;DHT22;2352;48.180;11.478;2023-08-07T12:35:29;18.90;82.30
4677;DHT22;2352;48.180;11.478;2023-08-07T12:38:33;18.90;81.10
4677;DHT22;2352;48.180;11.478;2023-08-07T12:41:36;18.80;80.40
4677;DHT22;2352;48.180;11.478;2023-08-07T12:44:41;18.80;81.50
4677;DHT22;2352;48.180;11.478;2023-08-07T12:47:45;18.70;82.80
4677;DHT22;2352;48.180;11.478;2023-08-07T12:50:48;18.70;80.90
4677;DHT22;2352;48.180;11.478;2023-08-07T12:53:52;18.60;79.50
4677;DHT22;2352;48.180;11.478;2023-08-07T12:56:55;18.50;80.90
4677;DHT22;2352;48.180;11.478;2023-08-07T12:59:58;18.50;83.10
4677;DHT22;2352;48.180;11.478;2023-08-07T13:03:01;18.50;84.00
4677;DHT22;2352;48.180;11.478;2023-08-07T13:06:04;18.50;82.10
4677;DHT22;2352;48.180;11.478;2023-08-07T13:09:11;18.60;82.60
4677;DHT22;2352;48.180;11.478;2023-08-07T13:12:14;18.70;79.20
4677;DHT22;2352;48.180;11.478;2023-08-07T13:15:17;18.80;80.00
4677;DHT22;2352;48.180;11.478;2023-08-07T13:18:20;18.90;74.50
4677;DHT22;2352;48.180;11.478;2023-08-07T13:21:23;19.20;80.90
4677;DHT22;2352;48.180;11.478;2023-08-07T13:24:28;19.20;77.70
4677;DHT22;2352;48.180;11.478;2023-08-07T13:27:31;19.10;76.00
4677;DHT22;2352;48.180;11.478;2023-08-07T13:30:34;19.00;77.60
4677;DHT22;2352;48.180;11.478;2023-08-07T13:33:38;18.90;78.00
4677;DHT22;2352;48.180;11.478;2023-08-07T13:36:41;18.70;77.50
4677;DHT22;2352;48.180;11.478;2023-08-07T13:39:45;18.70;79.50
4677;DHT22;2352;48.180;11.478;2023-08-07T13:42:50;18.80;80.40
4677;DHT22;2352;48.180;11.478;2023-08-07T13:45:54;18.80;79.70
4677;DHT22;2352;48.180;11.478;2023-08-07T13:48:57;18.70;76.90
4677;DHT22;2352;48.180;11.478;2023-08-07T13:52:00;18.80;76.10
4677;DHT22;2352;48.180;11.478;2023-08-07T13:55:06;18.90;75.80
4677;DHT22;2352;48.180;11.478;2023-08-07T13:58:11;18.90;74.10
4677;DHT22;2352;48.180;11.478;2023-08-07T14:01:13;19.00;76.10
4677;DHT22;2352;48.180;11.478;2023-08-07T14:04:16;18.90;73.90
4677;DHT22;2352;48.180;11.478;2023-08-07T14:07:19;18.90;74.50
4677;DHT22;2352;48.180;11.478;2023-08-07T14:10:23;18.80;75.20
4677;DHT22;2352;48.180;11.478;2023-08-07T14:13:26;18.80;74.10
4677;DHT22;2352;48.180;11.478;2023-08-07T14:16:29;18.80;75.70
4677;DHT22;2352;48.180;11.478;2023-08-07T14:19:33;18.80;77.00
4677;DHT22;2352;48.180;11.478;2023-08-07T14:22:36;18.90;76.70
4677;DHT22;2352;48.180;11.478;2023-08-07T14:25:41;18.90;76.00
4677;DHT22;2352;48.180;11.478;2023-08-07T14:28:44;18.90;75.90
4677;DHT22;2352;48.180;11.478;2023-08-07T14:31:47;18.90;77.30
4677;DHT22;2352;48.180;11.478;2023-08-07T14:34:50;18.80;76.40
4677;DHT22;2352;48.180;11.478;2023-08-07T14:37:53;18.70;75.50
4677;DHT22;2352;48.180;11.478;2023-08-07T14:40:57;18.60;75.80
4677;DHT22;2352;48.180;11.478;2023-08-07T14:44:01;18.60;77.70
4677;DHT22;2352;48.180;11.478;2023-08-07T14:47:04;18.60;80.30
4677;DHT22;2352;48.180;11.478;2023-08-07T14:50:07;18.60;80.60
4677;DHT22;2352;48.180;11.478;2023-08-07T14:53:10;18.60;78.50
4677;DHT22;2352;48.180;11.478;2023-08-07T14:56:14;18.60;79.70
4677;DHT22;2352;48.180;11.478;2023-08-07T14:59:17;18.50;78.00
4677;DHT22;2352;48.180;11.478;2023-08-07T15:02:20;18.40;77.10
4677;DHT22;2352;48.180;11.478;2023-08-07T15:05:23;18.40;78.00
4677;DHT22;2352;48.180;11.478;2023-08-07T15:08:26;18.50;78.90
4677;DHT22;2352;48.180;11.478;2023-08-07T15:11:30;18.50;79.50
4677;DHT22;2352;48.180;11.478;2023-08-07T15:14:33;18.50;78.00
4677;DHT22;2352;48.180;11.478;2023-08-07T15:17:36;18.50;78.80
4677;DHT22;2352;48.180;11.478;2023-08-07T15:20:39;18.40;79.00
4677;DHT22;2352;48.180;11.478;2023-08-07T15:23:42;18.40;79.10
4677;DHT22;2352;48.180;11.478;2023-08-07T15:26:46;18.40;80.40
4677;DHT22;2352;48.180;11.478;2023-08-07T15:29:49;18.40;79.20
4677;DHT22;2352;48.180;11.478;2023-08-07T15:32:52;18.40;81.20
4677;DHT22;2352;48.180;11.478;2023-08-07T15:35:55;18.50;81.70
4677;DHT22;2352;48.180;11.478;2023-08-07T15:38:59;18.50;81.60
4677;DHT22;2352;48.180;11.478;2023-08-07T15:42:03;18.50;81.30
4677;DHT22;2352;48.180;11.478;2023-08-07T15:45:07;18.50;80.90
4677;DHT22;2352;48.180;11.478;2023-08-07T15:48:10;18.40;82.20
4677;DHT22;2352;48.180;11.478;2023-08-07T15:51:13;18.30;80.90
4677;DHT22;2352;48.180;11.478;2023-08-07T15:54:16;18.30;82.00
4677;DHT22;2352;48.180;11.478;2023-08-07T15:57:20;18.20;81.30
4677;DHT22;2352;48.180;11.478;2023-08-07T16:00:23;18.20;83.50
4677;DHT22;2352;48.180;11.478;2023-08-07T16:03:26;18.10;84.10
4677;DHT22;2352;48.180;11.478;2023-08-07T16:06:29;18.10;86.90
4677;DHT22;2352;48.180;11.478;2023-08-07T16:09:32;18.10;85.30
4677;DHT22;2352;48.180;11.478;2023-08-07T16:12:36;18.10;85.40
4677;DHT22;2352;48.180;11.478;2023-08-07T16:15:39;18.10;84.40
4677;DHT22;2352;48.180;11.478;2023-08-07T16:18:43;18.10;86.10
4677;DHT22;2352;48.180;11.478;2023-08-07T16:21:46;18.10;88.80
4677;DHT22;2352;48.180;11.478;2023-08-07T16:24:49;17.90;90.60
4677;DHT22;2352;48.180;11.478;2023-08-07T16:27:53;18.00;91.20
4677;DHT22;2352;48.180;11.478;2023-08-07T16:30:56;17.90;91.10
4677;DHT22;2352;48.180;11.478;2023-08-07T16:33:59;17.80;91.90
4677;DHT22;2352;48.180;11.478;2023-08-07T16:37:02;17.80;92.90
4677;DHT22;2352;48.180;11.478;2023-08-07T16:40:06;17.60;93.40
4677;DHT22;2352;48.180;11.478;2023-08-07T16:43:11;17.90;93.60
4677;DHT22;2352;48.180;11.478;2023-08-07T16:46:14;17.90;93.90
4677;DHT22;2352;48.180;11.478;2023-08-07T16:49:18;17.90;93.80
4677;DHT22;2352;48.180;11.478;2023-08-07T16:52:21;18.00;94.70
4677;DHT22;2352;48.180;11.478;2023-08-07T16:55:24;18.00;94.20
4677;DHT22;2352;48.180;11.478;2023-08-07T16:58:28;17.90;94.30
4677;DHT22;2352;48.180;11.478;2023-08-07T17:01:31;17.90;94.30
4677;DHT22;2352;48.180;11.478;2023-08-07T17:04:34;17.90;94.10
4677;DHT22;2352;48.180;11.478;2023-08-07T17:07:37;17.80;93.90
4677;DHT22;2352;48.180;11.478;2023-08-07T17:10:40;17.80;94.30
4677;DHT22;2352;48.180;11.478;2023-08-07T17:13:44;17.80;94.90
4677;DHT22;2352;48.180;11.478;2023-08-07T17:16:47;17.80;94.50
4677;DHT22;2352;48.180;11.478;2023-08-07T17:19:50;17.80;94.20
4677;DHT22;2352;48.180;11.478;2023-08-07T17:22:54;17.80;94.30
4677;DHT22;2352;48.180;11.478;2023-08-07T17:25:57;17.80;94.40
4677;DHT22;2352;48.180;11.478;2023-08-07T17:29:04;17.70;94.60
4677;DHT22;2352;48.180;11.478;2023-08-07T17:32:07;17.70;95.10
4677;DHT22;2352;48.180;11.478;2023-08-07T17:35:10;17.60;94.40
4677;DHT22;2352;48.180;11.478;2023-08-07T17:38:13;17.60;94.20
4677;DHT22;2352;48.180;11.478;2023-08-07T17:41:17;17.50;94.30
4677;DHT22;2352;48.180;11.478;2023-08-07T17:44:25;17.50;94.30
4677;DHT22;2352;48.180;11.478;2023-08-07T17:47:27;17.50;94.40
4677;DHT22;2352;48.180;11.478;2023-08-07T17:50:31;17.50;93.90
4677;DHT22;2352;48.180;11.478;2023-08-07T17:53:34;17.50;94.00
4677;DHT22;2352;48.180;11.478;2023-08-07T17:56:37;17.50;94.90
4677;DHT22;2352;48.180;11.478;2023-08-07T17:59:41;17.50;94.10
4677;DHT22;2352;48.180;11.478;2023-08-07T18:02:44;17.50;95.20
4677;DHT22;2352;48.180;11.478;2023-08-07T18:05:47;17.40;95.00
4677;DHT22;2352;48.180;11.478;2023-08-07T18:08:50;17.40;94.50
4677;DHT22;2352;48.180;11.478;2023-08-07T18:11:53;17.50;95.40
4677;DHT22;2352;48.180;11.478;2023-08-07T18:14:57;17.40;94.90
4677;DHT22;2352;48.180;11.478;2023-08-07T18:18:00;17.40;95.50
4677;DHT22;2352;48.180;11.478;2023-08-07T18:21:03;17.40;95.90
4677;DHT22;2352;48.180;11.478;2023-08-07T18:24:06;17.40;95.90
4677;DHT22;2352;48.180;11.478;2023-08-07T18:27:09;17.40;96.50
4677;DHT22;2352;48.180;11.478;2023-08-07T18:30:15;17.40;96.60
4677;DHT22;2352;48.180;11.478;2023-08-07T18:33:18;17.20;96.10
4677;DHT22;2352;48.180;11.478;2023-08-07T18:36:20;17.20;96.00
4677;DHT22;2352;48.180;11.478;2023-08-07T18:39:23;17.20;95.80
4677;DHT22;2352;48.180;11.478;2023-08-07T18:42:26;17.10;95.20
4677;DHT22;2352;48.180;11.478;2023-08-07T18:45:30;16.90;95.30
4677;DHT22;2352;48.180;11.478;2023-08-07T18:48:33;16.90;95.40
4677;DHT22;2352;48.180;11.478;2023-08-07T18:51:36;17.00;95.80
4677;DHT22;2352;48.180;11.478;2023-08-07T18:54:39;17.00;95.50
4677;DHT22;2352;48.180;11.478;2023-08-07T18:57:42;17.00;96.10
4677;DHT22;2352;48.180;11.478;2023-08-07T19:00:46;17.00;95.70
4677;DHT22;2352;48.180;11.478;2023-08-07T19:03:49;17.00;95.40
4677;DHT22;2352;48.180;11.478;2023-08-07T19:06:52;16.90;95.70
4677;DHT22;2352;48.180;11.478;2023-08-07T19:09:55;17.00;95.50
4677;DHT22;2352;48.180;11.478;2023-08-07T19:12:58;16.90;95.60
4677;DHT22;2352;48.180;11.478;2023-08-07T19:16:05;16.90;95.80
4677;DHT22;2352;48.180;11.478;2023-08-07T19:19:08;16.90;95.60
4677;DHT22;2352;48.180;11.478;2023-08-07T19:22:10;16.90;95.90
4677;DHT22;2352;48.180;11.478;2023-08-07T19:25:13;16.90;95.60
4677;DHT22;2352;48.180;11.478;2023-08-07T19:28:16;16.80;95.50
4677;DHT22;2352;48.180;11.478;2023-08-07T19:31:21;16.80;95.70
4677;DHT22;2352;48.180;11.478;2023-08-07T19:34:24;16.80;95.80
4677;DHT22;2352;48.180;11.478;2023-08-07T19:37:27;16.80;95.70